createdAt,value
2019-05-28T00:00:33.428Z,101001.98
2019-05-28T00:03:04.823Z,101001.69
2019-05-28T00:05:36.355Z,101006.13
2019-05-28T00:08:07.660Z,101008.05
2019-05-28T00:10:39.013Z,101005.28
2019-05-28T00:13:10.399Z,101006.95
2019-05-28T00:15:42.139Z,101006.95
2019-05-28T00:18:13.367Z,101008.88
2019-05-28T00:20:44.605Z,101013.04
2019-05-28T00:23:16.361Z,101013.31
2019-05-28T00:25:47.696Z,101013.58
2019-05-28T00:28:19.084Z,101010.82
2019-05-28T00:30:50.591Z,101009.98
2019-05-28T00:33:21.893Z,101014.71
2019-05-28T00:35:53.122Z,101017.20
2019-05-28T00:38:24.326Z,101023.55
2019-05-28T00:40:55.752Z,101021.06
2019-05-28T00:43:27.012Z,101019.95
2019-05-28T00:45:58.436Z,101024.09
2019-05-28T00:48:29.707Z,101026.02
2019-05-28T00:51:00.959Z,101031.02
2019-05-28T00:53:32.357Z,101023.48
2019-05-28T00:56:04.328Z,101032.94
2019-05-28T00:58:39.786Z,101023.54
2019-05-28T01:01:11.198Z,101032.31
2019-05-28T01:03:42.560Z,101022.63
2019-05-28T01:06:13.796Z,101024.84
2019-05-28T01:08:44.984Z,101019.62
2019-05-28T01:11:16.298Z,101022.92
2019-05-28T01:13:47.495Z,101020.69
2019-05-28T01:16:19.163Z,101021.27
2019-05-28T01:18:50.745Z,101023.47
2019-05-28T01:21:22.075Z,101020.70
2019-05-28T01:23:54.132Z,101025.67
2019-05-28T01:26:25.562Z,101020.98
2019-05-28T01:28:56.832Z,101018.48
2019-05-28T01:31:28.345Z,101022.60
2019-05-28T01:33:59.731Z,101022.61
2019-05-28T01:36:31.064Z,101026.70
2019-05-28T01:39:02.163Z,101031.95
2019-05-28T01:41:33.600Z,101019.52
2019-05-28T01:44:04.987Z,101022.24
2019-05-28T01:46:36.476Z,101020.84
2019-05-28T01:49:07.756Z,101025.23
2019-05-28T01:51:39.012Z,101018.56
2019-05-28T01:54:10.312Z,101022.92
2019-05-28T01:56:41.642Z,101021.40
2019-05-28T01:59:12.904Z,101017.55
2019-05-28T02:01:44.229Z,101022.75
2019-05-28T02:04:15.611Z,101021.53
2019-05-28T02:06:46.946Z,101034.21
2019-05-28T02:09:18.261Z,101031.69
2019-05-28T02:11:49.701Z,101029.98
2019-05-28T02:14:20.984Z,101034.58
2019-05-28T02:16:52.221Z,101032.61
2019-05-28T02:19:23.565Z,101039.77
2019-05-28T02:21:54.888Z,101041.07
2019-05-28T02:24:27.177Z,101043.23
2019-05-28T02:26:58.481Z,101038.83
2019-05-28T02:29:29.974Z,101035.44
2019-05-28T02:32:01.379Z,101045.73
2019-05-28T02:34:32.761Z,101043.75
2019-05-28T02:37:04.083Z,101048.19
2019-05-28T02:39:35.365Z,101052.58
2019-05-28T02:42:06.686Z,101051.51
2019-05-28T02:44:37.963Z,101052.66
2019-05-28T02:47:09.297Z,101049.38
2019-05-28T02:49:40.578Z,101046.13
2019-05-28T02:52:13.199Z,101049.48
2019-05-28T02:54:44.574Z,101051.69
2019-05-28T02:57:16.596Z,101052.31
2019-05-28T02:59:49.680Z,101054.31
2019-05-28T03:02:23.914Z,101053.76
2019-05-28T03:04:58.493Z,101052.47
2019-05-28T03:07:32.239Z,101053.91
2019-05-28T03:10:05.444Z,101055.88
2019-05-28T03:12:36.750Z,101055.64
2019-05-28T03:15:09.229Z,101061.13
2019-05-28T03:17:42.512Z,101062.67
2019-05-28T03:20:14.104Z,101063.55
2019-05-28T03:22:46.568Z,101061.14
2019-05-28T03:25:20.731Z,101063.37
2019-05-28T03:27:56.148Z,101055.94
2019-05-28T03:30:27.453Z,101062.88
2019-05-28T03:32:59.113Z,101064.03
2019-05-28T03:35:30.383Z,101063.00
2019-05-28T03:38:02.693Z,101067.44
2019-05-28T03:40:43.205Z,101064.19
2019-05-28T03:43:15.961Z,101064.73
2019-05-28T03:45:48.276Z,101064.47
2019-05-28T03:48:21.339Z,101065.88
2019-05-28T03:50:54.255Z,101073.38
2019-05-28T03:53:26.383Z,101070.88
2019-05-28T03:55:59.200Z,101074.74
2019-05-28T03:58:31.864Z,101073.36
2019-05-28T04:01:05.169Z,101071.43
2019-05-28T04:03:37.189Z,101074.22
2019-05-28T04:06:10.327Z,101075.03
2019-05-28T04:08:42.204Z,101074.45
2019-05-28T04:11:14.006Z,101076.94
2019-05-28T04:13:46.316Z,101073.88
2019-05-28T04:16:18.073Z,101078.58
2019-05-28T04:18:51.234Z,101079.90
2019-05-28T04:21:23.159Z,101072.38
2019-05-28T04:23:54.892Z,101072.89
2019-05-28T04:26:27.854Z,101083.09
2019-05-28T04:29:00.557Z,101079.97
2019-05-28T04:31:32.727Z,101084.05
2019-05-28T04:34:04.740Z,101086.16
2019-05-28T04:36:38.323Z,101081.08
2019-05-28T04:39:10.697Z,101085.75
2019-05-28T04:41:42.881Z,101093.70
2019-05-28T04:44:15.945Z,101090.61
2019-05-28T04:46:48.293Z,101087.66
2019-05-28T04:49:19.765Z,101094.91
2019-05-28T04:51:51.042Z,101091.65
2019-05-28T04:54:22.284Z,101098.39
2019-05-28T04:56:53.565Z,101100.45
2019-05-28T04:59:25.051Z,101100.78
2019-05-28T05:01:56.483Z,101097.23
2019-05-28T05:04:27.985Z,101093.13
2019-05-28T05:06:59.399Z,101104.36
2019-05-28T05:09:30.818Z,101100.38
2019-05-28T05:12:02.220Z,101097.80
2019-05-28T05:14:33.658Z,101106.16
2019-05-28T05:17:04.997Z,101104.95
2019-05-28T05:19:36.332Z,101096.09
2019-05-28T05:22:07.723Z,101104.65
2019-05-28T05:24:39.059Z,101108.42
2019-05-28T05:27:11.167Z,101103.95
2019-05-28T05:29:42.480Z,101109.59
2019-05-28T05:32:13.741Z,101115.22
2019-05-28T05:34:45.162Z,101110.94
2019-05-28T05:37:16.741Z,101114.05
2019-05-28T05:39:49.159Z,101113.82
2019-05-28T05:42:20.730Z,101113.78
2019-05-28T05:44:53.722Z,101110.30
2019-05-28T05:47:25.005Z,101114.87
2019-05-28T05:49:56.541Z,101110.44
2019-05-28T05:52:27.790Z,101113.12
2019-05-28T05:54:59.128Z,101111.13
2019-05-28T05:57:30.433Z,101110.55
2019-05-28T06:00:01.877Z,101109.41
2019-05-28T06:02:33.131Z,101112.84
2019-05-28T06:05:05.846Z,101108.98
2019-05-28T06:07:37.075Z,101116.69
2019-05-28T06:10:08.764Z,101119.61
2019-05-28T06:12:39.958Z,101117.76
2019-05-28T06:15:11.405Z,101118.84
2019-05-28T06:17:42.858Z,101118.40
2019-05-28T06:20:15.264Z,101117.72
2019-05-28T06:22:46.530Z,101124.20
2019-05-28T06:25:18.392Z,101123.98
2019-05-28T06:27:49.799Z,101128.76
2019-05-28T06:30:21.225Z,101127.54
2019-05-28T06:32:52.986Z,101126.33
2019-05-28T06:35:24.425Z,101128.94
2019-05-28T06:37:55.789Z,101128.17
2019-05-28T06:40:27.122Z,101125.28
2019-05-28T06:43:01.088Z,101130.28
2019-05-28T06:45:32.438Z,101129.13
2019-05-28T06:48:03.671Z,101126.50
2019-05-28T06:50:34.902Z,101124.80
2019-05-28T06:53:06.314Z,101133.28
2019-05-28T06:55:37.539Z,101128.48
2019-05-28T06:58:08.814Z,101129.14
2019-05-28T07:00:40.262Z,101131.83
2019-05-28T07:03:11.654Z,101123.42
2019-05-28T07:05:42.882Z,101125.80
2019-05-28T07:08:14.173Z,101120.91
2019-05-28T07:10:57.186Z,101129.23
2019-05-28T07:13:18.411Z,101124.84
2019-05-28T07:15:49.637Z,101125.00
2019-05-28T07:18:23.373Z,101130.25
2019-05-28T07:20:56.183Z,101124.00
2019-05-28T07:23:27.835Z,101119.23
2019-05-28T07:25:59.471Z,101119.73
2019-05-28T07:28:31.108Z,101125.21
2019-05-28T07:31:02.430Z,101122.91
2019-05-28T07:33:35.783Z,101124.45
2019-05-28T07:36:06.723Z,101118.20
2019-05-28T07:38:38.018Z,101116.91
2019-05-28T07:41:09.330Z,101116.27
2019-05-28T07:43:40.524Z,101120.50
2019-05-28T07:46:11.748Z,101121.83
2019-05-28T07:48:43.031Z,101111.82
2019-05-28T07:51:14.283Z,101114.09
2019-05-28T07:53:45.455Z,101123.97
2019-05-28T07:56:16.701Z,101122.37
2019-05-28T07:58:47.956Z,101122.64
2019-05-28T08:01:19.997Z,101118.80
2019-05-28T08:03:51.554Z,101122.05
2019-05-28T08:06:23.078Z,101132.55
2019-05-28T08:08:54.343Z,101129.84
2019-05-28T08:11:25.827Z,101118.22
2019-05-28T08:13:57.215Z,101122.00
2019-05-28T08:16:28.668Z,101118.94
2019-05-28T08:18:59.891Z,101118.77
2019-05-28T08:21:32.422Z,101111.27
2019-05-28T08:24:04.012Z,101115.15
2019-05-28T08:26:35.363Z,101111.91
2019-05-28T08:29:06.683Z,101109.16
2019-05-28T08:31:37.980Z,101108.78
2019-05-28T08:34:10.809Z,101115.78
2019-05-28T08:36:42.410Z,101108.22
2019-05-28T08:39:13.728Z,101113.38
2019-05-28T08:41:45.483Z,101117.98
2019-05-28T08:44:16.893Z,101123.48
2019-05-28T08:46:48.389Z,101111.42
2019-05-28T08:49:25.213Z,101112.56
2019-05-28T08:52:03.295Z,101100.96
2019-05-28T08:54:34.637Z,101113.22
2019-05-28T08:57:06.396Z,101119.09
2019-05-28T08:59:37.972Z,101122.69
2019-05-28T09:02:26.387Z,101113.30
2019-05-28T09:04:43.516Z,101118.08
2019-05-28T09:07:14.904Z,101113.12
2019-05-28T09:09:46.093Z,101111.09
2019-05-28T09:12:17.925Z,101111.78
2019-05-28T09:14:56.130Z,101110.80
2019-05-28T09:17:29.665Z,101103.70
2019-05-28T09:20:23.614Z,101104.77
2019-05-28T09:23:02.940Z,101109.95
2019-05-28T09:25:35.587Z,101095.08
2019-05-28T09:28:07.506Z,101101.83
2019-05-28T09:30:46.181Z,101109.31
2019-05-28T09:36:08.002Z,101102.10
2019-05-28T09:38:37.196Z,101106.03
2019-05-28T09:41:08.638Z,101099.10
2019-05-28T09:43:42.180Z,101092.23
2019-05-28T09:46:14.790Z,101094.49
2019-05-28T09:48:46.082Z,101101.23
2019-05-28T09:51:17.598Z,101095.81
2019-05-28T09:53:49.003Z,101093.94
2019-05-28T09:56:21.565Z,101092.28
2019-05-28T09:58:53.266Z,101090.52
2019-05-28T10:01:29.939Z,101077.05
2019-05-28T10:04:02.887Z,101085.02
2019-05-28T10:06:37.120Z,101090.81
2019-05-28T10:09:07.827Z,101083.61
2019-05-28T10:11:41.712Z,101080.86
2019-05-28T10:14:12.969Z,101086.17
2019-05-28T10:16:44.285Z,101087.91
2019-05-28T10:19:15.577Z,101086.79
2019-05-28T10:21:46.955Z,101078.88
2019-05-28T10:24:18.317Z,101078.65
2019-05-28T10:26:49.792Z,101070.98
2019-05-28T10:29:20.930Z,101067.32
2019-05-28T10:31:52.471Z,101063.50
2019-05-28T10:34:23.650Z,101060.98
2019-05-28T10:36:55.967Z,101060.53
2019-05-28T10:39:27.299Z,101062.27
2019-05-28T10:41:58.540Z,101060.31
2019-05-28T10:44:29.887Z,101059.36
2019-05-28T10:47:02.720Z,101054.97
2019-05-28T10:49:34.223Z,101045.06
2019-05-28T10:52:05.646Z,101044.92
2019-05-28T10:54:37.648Z,101046.00
2019-05-28T10:57:09.142Z,101034.41
2019-05-28T10:59:41.179Z,101039.94
2019-05-28T11:02:12.573Z,101038.08
2019-05-28T11:04:45.443Z,101022.51
2019-05-28T11:07:16.784Z,101035.72
2019-05-28T11:09:48.062Z,101025.95
2019-05-28T11:12:21.009Z,101035.89
2019-05-28T11:14:52.177Z,101027.93
2019-05-28T11:17:23.506Z,101020.06
2019-05-28T11:19:54.798Z,101020.70
2019-05-28T11:22:26.525Z,101021.28
2019-05-28T11:24:57.825Z,101012.02
2019-05-28T11:27:30.781Z,101012.36
2019-05-28T11:30:02.216Z,101008.77
2019-05-28T11:32:36.583Z,101018.20
2019-05-28T11:35:08.680Z,101008.64
2019-05-28T11:37:40.156Z,101005.11
2019-05-28T11:40:16.266Z,101001.59
2019-05-28T11:42:48.037Z,101003.23
2019-05-28T11:45:19.678Z,101014.27
2019-05-28T11:47:51.673Z,101017.00
2019-05-28T11:50:23.268Z,101007.88
2019-05-28T11:52:55.037Z,101004.02
2019-05-28T11:55:26.491Z,100992.95
2019-05-28T11:57:57.933Z,100996.02
2019-05-28T12:00:29.644Z,100991.45
2019-05-28T12:03:01.069Z,100995.86
2019-05-28T12:05:32.545Z,100996.36
2019-05-28T12:08:05.311Z,100995.08
2019-05-28T12:10:36.967Z,100989.14
2019-05-28T12:13:10.952Z,100996.94
2019-05-28T12:15:42.654Z,100991.92
2019-05-28T12:18:19.332Z,101001.31
2019-05-28T12:20:59.892Z,100988.88
2019-05-28T12:23:36.050Z,100982.03
2019-05-28T12:26:10.384Z,100977.75
2019-05-28T12:28:44.194Z,100979.31
2019-05-28T12:31:20.108Z,100979.63
2019-05-28T12:33:53.484Z,100981.25
2019-05-28T12:36:27.023Z,100981.19
2019-05-28T12:39:00.361Z,100987.28
2019-05-28T12:41:32.933Z,100970.27
2019-05-28T12:44:07.635Z,100966.02
2019-05-28T12:46:39.527Z,100971.89
2019-05-28T12:49:10.875Z,100963.13
2019-05-28T12:51:52.519Z,100963.09
2019-05-28T12:54:48.336Z,100964.88
2019-05-28T12:57:38.373Z,100964.59
2019-05-28T13:00:28.854Z,100968.21
2019-05-28T13:03:15.282Z,100966.93
2019-05-28T13:05:54.928Z,100963.09
2019-05-28T13:08:42.740Z,100956.40
2019-05-28T13:11:21.840Z,100956.09
2019-05-28T13:14:01.625Z,100954.95
2019-05-28T13:16:38.352Z,100949.50
2019-05-28T13:19:33.050Z,100955.46
2019-05-28T13:22:24.187Z,100946.33
2019-05-28T13:27:40.163Z,100947.41
2019-05-28T13:30:14.738Z,100945.23
2019-05-28T13:32:47.072Z,100944.82
2019-05-28T13:35:25.968Z,100939.70
2019-05-28T13:37:57.334Z,100936.27
2019-05-28T13:40:28.698Z,100941.20
2019-05-28T13:43:01.035Z,100933.72
2019-05-28T13:45:33.283Z,100942.11
2019-05-28T13:48:05.030Z,100939.06
2019-05-28T13:50:36.395Z,100940.88
2019-05-28T13:53:09.337Z,100933.33
2019-05-28T13:55:51.820Z,100925.50
2019-05-28T13:58:23.705Z,100913.00
2019-05-28T14:00:55.408Z,100909.74
2019-05-28T14:03:26.840Z,100908.63
2019-05-28T14:05:58.246Z,100917.89
2019-05-28T14:08:46.022Z,100916.36
2019-05-28T14:11:08.222Z,100909.77
2019-05-28T14:13:39.820Z,100912.91
2019-05-28T14:16:11.150Z,100908.56
2019-05-28T14:18:42.975Z,100905.70
2019-05-28T14:21:21.095Z,100908.35
2019-05-28T14:23:52.827Z,100900.77
2019-05-28T14:26:25.241Z,100904.30
2019-05-28T14:28:56.563Z,100896.56
2019-05-28T14:31:27.930Z,100893.51
2019-05-28T14:33:59.353Z,100896.01
2019-05-28T14:36:30.757Z,100897.25
2019-05-28T14:39:04.288Z,100892.39
2019-05-28T14:41:35.991Z,100887.31
2019-05-28T14:44:07.862Z,100883.91
2019-05-28T14:46:39.655Z,100882.71
2019-05-28T14:49:11.057Z,100886.06
2019-05-28T14:51:42.380Z,100891.50
2019-05-28T14:54:13.735Z,100893.22
2019-05-28T14:56:45.186Z,100901.11
2019-05-28T14:59:16.776Z,100891.48
2019-05-28T15:01:48.076Z,100893.04
2019-05-28T15:04:21.028Z,100892.64
2019-05-28T15:06:52.871Z,100891.95
2019-05-28T15:09:24.291Z,100887.50
2019-05-28T15:11:56.211Z,100888.84
2019-05-28T15:14:27.522Z,100894.84
2019-05-28T15:16:58.844Z,100891.14
2019-05-28T15:19:30.199Z,100888.93
2019-05-28T15:22:01.784Z,100886.55
2019-05-28T15:24:34.534Z,100888.76
2019-05-28T15:27:06.003Z,100886.13
2019-05-28T15:29:39.059Z,100887.28
2019-05-28T15:32:10.627Z,100882.33
2019-05-28T15:34:41.984Z,100888.19
2019-05-28T15:37:14.307Z,100894.80
2019-05-28T15:39:45.644Z,100894.73
2019-05-28T15:42:20.680Z,100889.20
2019-05-28T15:44:50.423Z,100881.17
2019-05-28T15:47:21.764Z,100887.42
2019-05-28T15:49:53.159Z,100887.38
2019-05-28T15:52:25.896Z,100886.73
2019-05-28T15:54:57.547Z,100880.95
2019-05-28T15:57:29.041Z,100881.20
2019-05-28T16:00:00.526Z,100879.42
2019-05-28T16:02:32.277Z,100881.08
2019-05-28T16:05:03.844Z,100875.72
2019-05-28T16:07:41.502Z,100873.73
2019-05-28T16:10:12.998Z,100874.48
2019-05-28T16:12:44.555Z,100879.48
2019-05-28T16:15:16.243Z,100876.77
2019-05-28T16:17:47.562Z,100872.98
2019-05-28T16:20:18.928Z,100873.50
2019-05-28T16:22:53.387Z,100874.88
2019-05-28T16:25:24.714Z,100871.52
2019-05-28T16:27:55.871Z,100865.75
2019-05-28T16:30:28.769Z,100864.80
2019-05-28T16:33:00.507Z,100861.26
2019-05-28T16:35:32.030Z,100867.80
2019-05-28T16:38:03.466Z,100865.55
2019-05-28T16:40:34.804Z,100867.47
2019-05-28T16:43:06.100Z,100870.64
2019-05-28T16:45:37.627Z,100874.40
2019-05-28T16:48:08.849Z,100870.42
2019-05-28T16:50:40.329Z,100869.81
2019-05-28T16:53:11.618Z,100868.53
2019-05-28T16:55:42.939Z,100863.03
2019-05-28T16:58:14.207Z,100869.17
2019-05-28T17:00:45.520Z,100866.08
2019-05-28T17:03:17.015Z,100869.24
2019-05-28T17:05:48.354Z,100869.84
2019-05-28T17:08:19.737Z,100868.45
2019-05-28T17:10:51.406Z,100871.29
2019-05-28T17:13:22.695Z,100872.26
2019-05-28T17:15:53.994Z,100866.30
2019-05-28T17:18:25.242Z,100865.45
2019-05-28T17:20:56.529Z,100869.41
2019-05-28T17:23:27.815Z,100868.38
2019-05-28T17:25:59.122Z,100865.14
2019-05-28T17:28:30.299Z,100875.84
2019-05-28T17:31:01.631Z,100873.95
2019-05-28T17:33:32.895Z,100871.34
2019-05-28T17:36:04.339Z,100879.59
2019-05-28T17:38:35.670Z,100883.59
2019-05-28T17:41:07.001Z,100888.59
2019-05-28T17:43:38.286Z,100886.94
2019-05-28T17:46:09.811Z,100878.58
2019-05-28T17:48:41.131Z,100887.13
2019-05-28T17:51:12.481Z,100890.11
2019-05-28T17:53:43.730Z,100890.36
2019-05-28T17:56:15.078Z,100888.66
2019-05-28T17:58:46.618Z,100888.73
2019-05-28T18:01:18.009Z,100894.72
2019-05-28T18:03:49.290Z,100890.81
2019-05-28T18:06:20.745Z,100889.42
2019-05-28T18:08:52.015Z,100894.25
2019-05-28T18:11:23.294Z,100899.09
2019-05-28T18:13:54.605Z,100904.13
2019-05-28T18:16:25.949Z,100898.14
2019-05-28T18:19:00.613Z,100910.58
2019-05-28T18:21:30.297Z,100906.20
2019-05-28T18:24:01.443Z,100899.36
2019-05-28T18:26:32.779Z,100907.41
2019-05-28T18:29:04.255Z,100909.91
2019-05-28T18:31:35.577Z,100917.30
2019-05-28T18:34:06.866Z,100907.22
2019-05-28T18:36:38.327Z,100911.74
2019-05-28T18:39:10.553Z,100906.48
2019-05-28T18:41:41.900Z,100913.73
2019-05-28T18:44:13.172Z,100920.14
2019-05-28T18:46:44.541Z,100918.72
2019-05-28T18:49:15.831Z,100917.02
2019-05-28T18:51:47.109Z,100918.72
2019-05-28T18:54:18.344Z,100920.57
2019-05-28T18:56:50.317Z,100916.18
2019-05-28T18:59:21.738Z,100920.45
2019-05-28T19:01:53.014Z,100916.56
2019-05-28T19:04:24.283Z,100914.98
2019-05-28T19:06:55.613Z,100921.09
2019-05-28T19:09:26.796Z,100917.52
2019-05-28T19:11:57.995Z,100916.92
2019-05-28T19:14:29.272Z,100910.51
2019-05-28T19:17:00.662Z,100913.66
2019-05-28T19:19:31.932Z,100913.66
2019-05-28T19:22:03.256Z,100915.92
2019-05-28T19:24:34.351Z,100911.14
2019-05-28T19:27:05.726Z,100908.98
2019-05-28T19:29:37.026Z,100904.50
2019-05-28T19:32:08.326Z,100903.70
2019-05-28T19:34:39.627Z,100906.81
2019-05-28T19:37:12.175Z,100904.00
2019-05-28T19:39:44.779Z,100906.86
2019-05-28T19:42:16.139Z,100902.13
2019-05-28T19:44:47.536Z,100902.02
2019-05-28T19:47:18.913Z,100905.70
2019-05-28T19:49:50.187Z,100911.39
2019-05-28T19:52:21.546Z,100905.31
2019-05-28T19:54:52.814Z,100901.00
2019-05-28T19:57:24.140Z,100900.03
2019-05-28T19:59:55.293Z,100908.09
2019-05-28T20:02:26.634Z,100912.83
2019-05-28T20:04:58.024Z,100913.92
2019-05-28T20:07:29.370Z,100910.97
2019-05-28T20:10:00.746Z,100911.00
2019-05-28T20:12:32.229Z,100913.02
2019-05-28T20:15:04.045Z,100908.48
2019-05-28T20:17:35.254Z,100914.04
2019-05-28T20:20:08.688Z,100924.70
2019-05-28T20:22:40.143Z,100919.91
2019-05-28T20:25:11.882Z,100920.24
2019-05-28T20:27:43.139Z,100917.76
2019-05-28T20:30:15.560Z,100927.77
2019-05-28T20:32:46.914Z,100926.80
2019-05-28T20:35:18.306Z,100926.84
2019-05-28T20:37:49.560Z,100926.20
2019-05-28T20:40:21.850Z,100927.70
2019-05-28T20:42:53.384Z,100931.98
2019-05-28T20:45:24.552Z,100927.95
2019-05-28T20:47:55.896Z,100934.63
2019-05-28T20:50:27.185Z,100928.05
2019-05-28T20:52:58.533Z,100927.98
2019-05-28T20:55:29.729Z,100929.96
2019-05-28T20:58:01.085Z,100927.42
2019-05-28T21:00:32.362Z,100922.80
2019-05-28T21:03:03.671Z,100916.38
2019-05-28T21:05:34.949Z,100919.79
2019-05-28T21:08:06.199Z,100916.72
2019-05-28T21:10:37.345Z,100921.98
2019-05-28T21:13:08.670Z,100909.84
2019-05-28T21:15:40.019Z,100907.34
2019-05-28T21:18:11.392Z,100910.19
2019-05-28T21:20:42.555Z,100911.05
2019-05-28T21:23:13.737Z,100909.30
2019-05-28T21:25:44.900Z,100914.02
2019-05-28T21:28:16.100Z,100910.48
2019-05-28T21:30:47.606Z,100915.58
2019-05-28T21:33:18.849Z,100915.22
2019-05-28T21:35:50.839Z,100909.75
2019-05-28T21:38:22.207Z,100908.33
2019-05-28T21:40:55.528Z,100908.69
2019-05-28T21:43:26.867Z,100910.33
2019-05-28T21:45:58.197Z,100912.92
2019-05-28T21:48:29.538Z,100916.61
2019-05-28T21:51:00.865Z,100908.48
2019-05-28T21:53:32.177Z,100913.81
2019-05-28T21:56:03.563Z,100913.55
2019-05-28T21:58:34.879Z,100915.41
2019-05-28T22:01:09.028Z,100918.02
2019-05-28T22:03:40.290Z,100918.27
2019-05-28T22:06:11.576Z,100913.02
2019-05-28T22:08:42.934Z,100910.53
2019-05-28T22:11:14.143Z,100914.44
2019-05-28T22:13:45.476Z,100911.09
2019-05-28T22:16:16.673Z,100906.97
2019-05-28T22:18:48.022Z,100907.22
2019-05-28T22:24:01.084Z,100915.59
2019-05-28T22:26:32.364Z,100905.63
2019-05-28T22:29:03.725Z,100910.30
2019-05-28T22:31:34.898Z,100912.28
2019-05-28T22:34:07.327Z,100905.67
2019-05-28T22:36:38.591Z,100907.84
2019-05-28T22:39:09.926Z,100905.63
2019-05-28T22:41:42.589Z,100913.40
2019-05-28T22:44:13.842Z,100908.71
2019-05-28T22:46:45.044Z,100908.70
2019-05-28T22:49:16.465Z,100900.38
2019-05-28T22:51:47.751Z,100910.08
2019-05-28T22:54:19.091Z,100907.30
2019-05-28T22:56:50.290Z,100912.84
2019-05-28T22:59:21.672Z,100910.40
2019-05-28T23:01:52.884Z,100907.66
2019-05-28T23:04:24.235Z,100913.44
2019-05-28T23:06:55.523Z,100909.05
2019-05-28T23:09:26.834Z,100908.23
2019-05-28T23:11:58.116Z,100912.38
2019-05-28T23:14:29.355Z,100906.28
2019-05-28T23:17:00.653Z,100898.84
2019-05-28T23:19:31.877Z,100904.35
2019-05-28T23:22:03.031Z,100900.46
2019-05-28T23:24:34.347Z,100897.14
2019-05-28T23:27:05.638Z,100902.96
2019-05-28T23:29:36.873Z,100893.00
2019-05-28T23:32:08.306Z,100894.94
2019-05-28T23:34:39.668Z,100895.51
2019-05-28T23:37:10.983Z,100898.00
2019-05-28T23:39:42.268Z,100892.44
2019-05-28T23:42:14.571Z,100894.94
2019-05-28T23:44:46.006Z,100895.50
2019-05-28T23:47:17.289Z,100894.13
2019-05-28T23:49:48.614Z,100892.75
2019-05-28T23:52:19.879Z,100895.50
2019-05-28T23:54:51.094Z,100889.95
2019-05-28T23:57:22.212Z,100892.74
2019-05-28T23:59:53.438Z,100894.97
